createdAt,value
2022-10-07T00:00:27.278Z,987.47
2022-10-07T00:05:27.194Z,987.47
2022-10-07T00:10:27.124Z,987.44
2022-10-07T00:15:27.065Z,987.39
2022-10-07T00:20:26.989Z,987.41
2022-10-07T00:25:26.938Z,987.34
2022-10-07T00:30:26.849Z,987.25
2022-10-07T00:35:26.714Z,987.29
2022-10-07T00:40:26.638Z,987.18
2022-10-07T00:45:26.587Z,987.18
2022-10-07T00:50:26.477Z,987.11
2022-10-07T00:55:26.439Z,987.06
2022-10-07T01:00:26.349Z,987.03
2022-10-07T01:05:26.287Z,986.95
2022-10-07T01:10:26.200Z,986.92
2022-10-07T01:15:26.129Z,986.85
2022-10-07T01:20:26.059Z,986.72
2022-10-07T01:25:25.998Z,986.62
2022-10-07T01:30:25.946Z,986.60
2022-10-07T01:35:25.862Z,986.57
2022-10-07T01:40:25.789Z,986.48
2022-10-07T01:45:25.762Z,986.49
2022-10-07T01:50:25.642Z,986.39
2022-10-07T01:55:25.603Z,986.36
2022-10-07T02:00:25.512Z,986.32
2022-10-07T02:05:25.442Z,986.25
2022-10-07T02:10:25.383Z,986.20
2022-10-07T02:15:25.306Z,986.18
2022-10-07T02:20:25.257Z,986.14
2022-10-07T02:25:25.178Z,986.07
2022-10-07T02:30:25.114Z,986.00
2022-10-07T02:35:25.034Z,986.02
2022-10-07T02:40:24.975Z,985.92
2022-10-07T02:45:26.919Z,985.88
2022-10-07T02:50:24.814Z,985.81
2022-10-07T02:55:24.754Z,985.83
2022-10-07T03:00:24.672Z,985.84
2022-10-07T03:05:24.614Z,985.77
2022-10-07T03:10:24.538Z,985.78
2022-10-07T03:15:24.484Z,985.75
2022-10-07T03:20:24.407Z,985.75
2022-10-07T03:25:24.329Z,985.71
2022-10-07T03:30:24.601Z,985.75
2022-10-07T03:35:24.215Z,985.73
2022-10-07T03:40:24.118Z,985.69
2022-10-07T03:45:24.065Z,985.69
2022-10-07T03:50:23.968Z,985.68
2022-10-07T03:55:23.916Z,985.63
2022-10-07T04:00:23.845Z,985.55
2022-10-07T04:05:23.768Z,985.53
2022-10-07T04:10:23.696Z,985.51
2022-10-07T04:15:23.628Z,985.50
2022-10-07T04:20:23.557Z,985.41
2022-10-07T04:25:23.498Z,985.40
2022-10-07T04:30:23.417Z,985.35
2022-10-07T04:35:23.358Z,985.33
2022-10-07T04:40:23.278Z,985.23
2022-10-07T04:45:23.209Z,985.20
2022-10-07T04:50:23.147Z,985.10
2022-10-07T04:55:23.086Z,985.07
2022-10-07T05:00:22.999Z,985.07
2022-10-07T05:05:22.940Z,985.01
2022-10-07T05:10:22.918Z,985.04
2022-10-07T05:15:22.806Z,985.11
2022-10-07T05:20:22.719Z,985.08
2022-10-07T05:25:22.662Z,985.11
2022-10-07T05:30:22.590Z,985.08
2022-10-07T05:35:22.533Z,985.02
2022-10-07T05:40:22.482Z,984.99
2022-10-07T05:45:22.403Z,984.91
2022-10-07T05:50:22.340Z,984.86
2022-10-07T05:55:22.277Z,984.94
2022-10-07T06:00:22.297Z,984.91
2022-10-07T06:05:22.150Z,984.93
2022-10-07T06:10:22.095Z,984.90
2022-10-07T06:15:22.062Z,984.88
2022-10-07T06:20:21.954Z,984.91
2022-10-07T06:25:21.881Z,984.92
2022-10-07T06:30:22.520Z,984.96
2022-10-07T06:35:21.751Z,984.90
2022-10-07T06:40:21.671Z,984.96
2022-10-07T06:45:21.612Z,985.00
2022-10-07T06:50:21.532Z,984.94
2022-10-07T06:55:21.499Z,984.90
2022-10-07T07:00:21.394Z,984.94
2022-10-07T07:05:21.345Z,984.89
2022-10-07T07:10:21.272Z,984.90
2022-10-07T07:15:21.205Z,984.85
2022-10-07T07:20:21.153Z,984.80
2022-10-07T07:25:21.072Z,984.78
2022-10-07T07:30:21.005Z,984.78
2022-10-07T07:35:20.953Z,984.83
2022-10-07T07:40:20.873Z,984.78
2022-10-07T07:45:20.824Z,984.71
2022-10-07T07:50:20.771Z,984.67
2022-10-07T07:55:20.697Z,984.65
2022-10-07T08:00:20.626Z,984.62
2022-10-07T08:05:23.908Z,984.64
2022-10-07T08:10:20.515Z,984.59
2022-10-07T08:15:20.436Z,984.63
2022-10-07T08:20:20.375Z,984.61
2022-10-07T08:25:20.309Z,984.54
2022-10-07T08:30:20.254Z,984.54
2022-10-07T08:35:20.167Z,984.51
2022-10-07T08:40:20.112Z,984.47
2022-10-07T08:45:20.075Z,984.40
2022-10-07T08:50:20.352Z,984.38
2022-10-07T08:55:19.928Z,984.26
2022-10-07T09:00:19.858Z,984.25
2022-10-07T09:05:19.812Z,984.14
2022-10-07T09:10:19.773Z,984.12
2022-10-07T09:15:19.701Z,984.08
2022-10-07T09:20:19.613Z,983.94
2022-10-07T09:25:19.560Z,983.91
2022-10-07T09:30:19.498Z,983.79
2022-10-07T09:35:19.437Z,983.76
2022-10-07T09:40:19.402Z,983.73
2022-10-07T09:45:19.303Z,983.73
2022-10-07T09:50:19.294Z,983.66
2022-10-07T09:55:19.170Z,983.59
2022-10-07T10:00:19.178Z,983.53
2022-10-07T10:05:19.044Z,983.52
2022-10-07T10:10:19.019Z,983.42
2022-10-07T10:15:18.904Z,983.43
2022-10-07T10:20:18.865Z,983.38
2022-10-07T10:25:18.787Z,983.28
2022-10-07T10:30:18.743Z,983.23
2022-10-07T10:35:18.655Z,983.20
2022-10-07T10:40:19.112Z,983.15
2022-10-07T10:45:18.528Z,983.01
2022-10-07T10:50:18.501Z,982.89
2022-10-07T10:55:18.400Z,982.77
2022-10-07T11:00:18.509Z,982.73
2022-10-07T11:05:18.271Z,982.68
2022-10-07T11:10:18.266Z,982.63
2022-10-07T11:15:18.142Z,982.55
2022-10-07T11:20:18.096Z,982.48
2022-10-07T11:25:18.013Z,982.45
2022-10-07T11:30:17.984Z,982.32
2022-10-07T11:35:17.876Z,982.25
2022-10-07T11:40:17.830Z,982.19
2022-10-07T11:45:17.747Z,982.16
2022-10-07T11:50:17.709Z,982.10
2022-10-07T11:55:17.649Z,982.06
2022-10-07T12:00:17.553Z,981.97
2022-10-07T12:05:17.528Z,981.82
2022-10-07T12:10:17.451Z,981.78
2022-10-07T12:15:17.372Z,981.73
2022-10-07T12:20:17.293Z,981.58
2022-10-07T12:25:17.242Z,981.50
2022-10-07T12:30:17.165Z,981.47
2022-10-07T12:35:17.125Z,981.36
2022-10-07T12:40:17.045Z,981.29
2022-10-07T12:45:16.995Z,981.32
2022-10-07T12:50:16.907Z,981.20
2022-10-07T12:55:16.880Z,981.16
2022-10-07T13:00:16.801Z,981.09
2022-10-07T13:05:16.788Z,981.11
2022-10-07T13:10:16.691Z,981.06
2022-10-07T13:15:16.622Z,981.08
2022-10-07T13:20:16.554Z,980.96
2022-10-07T13:25:16.551Z,980.90
2022-10-07T13:30:16.455Z,980.83
2022-10-07T13:35:16.353Z,980.71
2022-10-07T13:40:16.294Z,980.67
2022-10-07T13:45:16.235Z,980.60
2022-10-07T13:50:16.177Z,980.57
2022-10-07T13:55:16.107Z,980.57
2022-10-07T14:00:16.039Z,980.50
2022-10-07T14:05:15.980Z,980.43
2022-10-07T14:10:15.920Z,980.28
2022-10-07T14:15:15.860Z,980.23
2022-10-07T14:20:15.790Z,980.23
2022-10-07T14:25:15.747Z,980.10
2022-10-07T14:30:15.653Z,980.09
2022-10-07T14:35:15.604Z,980.01
2022-10-07T14:40:15.536Z,979.98
2022-10-07T14:45:15.457Z,979.93
2022-10-07T14:50:15.399Z,979.86
2022-10-07T14:55:15.357Z,979.81
2022-10-07T15:00:15.279Z,979.76
2022-10-07T15:05:15.257Z,979.71
2022-10-07T15:10:15.148Z,979.68
2022-10-07T15:15:15.082Z,979.67
2022-10-07T15:20:15.031Z,979.64
2022-10-07T15:25:14.982Z,979.63
2022-10-07T15:30:14.904Z,979.59
2022-10-07T15:35:14.840Z,979.55
2022-10-07T15:40:14.786Z,979.55
2022-10-07T15:45:14.711Z,979.51
2022-10-07T15:50:14.633Z,979.56
2022-10-07T15:55:14.594Z,979.51
2022-10-07T16:00:14.515Z,979.57
2022-10-07T16:05:14.458Z,979.56
2022-10-07T16:10:14.456Z,979.52
2022-10-07T16:15:14.320Z,979.45
2022-10-07T16:20:14.251Z,979.48
2022-10-07T16:25:14.194Z,979.46
2022-10-07T16:30:14.123Z,979.47
2022-10-07T16:35:14.064Z,979.48
2022-10-07T16:40:13.994Z,979.48
2022-10-07T16:45:13.945Z,979.47
2022-10-07T16:50:13.871Z,979.42
2022-10-07T16:55:13.814Z,979.43
2022-10-07T17:00:13.746Z,979.39
2022-10-07T17:05:13.686Z,979.41
2022-10-07T17:10:14.559Z,979.40
2022-10-07T17:15:13.560Z,979.38
2022-10-07T17:20:13.479Z,979.39
2022-10-07T17:25:13.433Z,979.36
2022-10-07T17:30:13.372Z,979.38
2022-10-07T17:35:13.341Z,979.38
2022-10-07T17:40:13.231Z,979.37
2022-10-07T17:45:13.171Z,979.40
2022-10-07T17:50:13.111Z,979.37
2022-10-07T17:55:13.053Z,979.44
2022-10-07T18:00:13.002Z,979.38
2022-10-07T18:05:12.992Z,979.40
2022-10-07T18:10:12.939Z,979.50
2022-10-07T18:15:12.808Z,979.52
2022-10-07T18:20:15.155Z,979.44
2022-10-07T18:25:12.667Z,979.47
2022-10-07T18:30:12.595Z,979.41
2022-10-07T18:35:12.536Z,979.37
2022-10-07T18:40:12.488Z,979.33
2022-10-07T18:45:12.407Z,979.34
2022-10-07T18:50:12.358Z,979.32
2022-10-07T18:55:12.293Z,979.27
2022-10-07T19:00:12.241Z,979.26
2022-10-07T19:05:12.183Z,979.28
2022-10-07T19:10:12.116Z,979.28
2022-10-07T19:15:12.038Z,979.30
2022-10-07T19:20:11.963Z,979.33
2022-10-07T19:25:11.902Z,979.31
2022-10-07T19:30:11.845Z,979.33
2022-10-07T19:35:11.772Z,979.33
2022-10-07T19:40:11.703Z,979.37
2022-10-07T19:45:11.643Z,979.31
2022-10-07T19:50:11.573Z,979.32
2022-10-07T19:55:11.512Z,979.35
2022-10-07T20:00:11.448Z,979.30
2022-10-07T20:05:11.374Z,979.28
2022-10-07T20:10:11.334Z,979.28
2022-10-07T20:15:11.275Z,979.32
2022-10-07T20:20:11.589Z,979.26
2022-10-07T20:25:11.155Z,979.29
2022-10-07T20:30:15.118Z,979.22
2022-10-07T20:35:12.006Z,979.23
2022-10-07T20:40:10.960Z,979.23
2022-10-07T20:45:10.876Z,979.24
2022-10-07T20:50:10.831Z,979.27
2022-10-07T20:55:10.819Z,979.24
2022-10-07T21:00:10.697Z,979.31
2022-10-07T21:05:10.642Z,979.29
2022-10-07T21:10:10.570Z,979.21
2022-10-07T21:15:10.509Z,979.27
2022-10-07T21:20:10.443Z,979.26
2022-10-07T21:25:10.374Z,979.16
2022-10-07T21:30:10.348Z,979.20
2022-10-07T21:35:10.248Z,979.15
2022-10-07T21:40:10.202Z,979.16
2022-10-07T21:45:10.110Z,979.14
2022-10-07T21:50:10.061Z,979.10
2022-10-07T21:55:09.989Z,979.06
2022-10-07T22:00:09.921Z,979.06
2022-10-07T22:05:09.881Z,979.06
2022-10-07T22:10:09.799Z,979.06
2022-10-07T22:15:09.736Z,979.01
2022-10-07T22:20:09.672Z,978.95
2022-10-07T22:25:09.613Z,978.89
2022-10-07T22:30:09.543Z,978.86
2022-10-07T22:35:09.488Z,978.80
2022-10-07T22:40:09.417Z,978.72
2022-10-07T22:45:09.355Z,978.73
2022-10-07T22:50:09.298Z,978.66
2022-10-07T22:55:09.234Z,978.57
2022-10-07T23:00:09.193Z,978.55
2022-10-07T23:05:09.097Z,978.45
2022-10-07T23:10:09.046Z,978.51
2022-10-07T23:15:08.988Z,978.40
2022-10-07T23:20:08.906Z,978.43
2022-10-07T23:25:08.834Z,978.42
2022-10-07T23:30:09.109Z,978.37
2022-10-07T23:35:08.825Z,978.43
2022-10-07T23:40:08.649Z,978.47
2022-10-07T23:45:08.586Z,978.45
2022-10-07T23:50:08.517Z,978.43
2022-10-07T23:55:08.445Z,978.37
